createdAt,value
2019-03-10T00:03:23.451Z,9.83
2019-03-10T00:06:47.374Z,9.07
2019-03-10T00:10:11.688Z,9.77
2019-03-10T00:13:35.382Z,8.53
2019-03-10T00:16:59.658Z,6.00
2019-03-10T00:20:23.608Z,7.33
2019-03-10T00:23:47.420Z,7.07
2019-03-10T00:27:11.804Z,5.90
2019-03-10T00:30:35.797Z,4.50
2019-03-10T00:33:59.543Z,5.80
2019-03-10T00:37:23.311Z,3.77
2019-03-10T00:41:14.535Z,3.40
2019-03-10T00:45:00.784Z,3.20
2019-03-10T00:48:47.453Z,2.67
2019-03-10T00:52:14.887Z,3.10
2019-03-10T00:55:38.955Z,3.00
2019-03-10T00:59:03.538Z,3.93
2019-03-10T01:02:27.243Z,6.53
2019-03-10T01:05:51.189Z,3.20
2019-03-10T01:09:15.704Z,2.60
2019-03-10T01:12:39.675Z,4.90
2019-03-10T01:16:05.127Z,2.77
2019-03-10T01:19:29.595Z,3.30
2019-03-10T01:22:53.401Z,2.93
2019-03-10T01:26:17.248Z,2.30
2019-03-10T01:29:40.988Z,2.23
2019-03-10T01:33:25.899Z,2.10
2019-03-10T01:36:50.147Z,2.07
2019-03-10T01:40:14.276Z,3.20
2019-03-10T01:43:38.053Z,4.20
2019-03-10T01:47:02.518Z,2.03
2019-03-10T01:50:26.500Z,2.50
2019-03-10T01:53:50.235Z,2.77
2019-03-10T01:57:14.010Z,2.17
2019-03-10T02:00:37.926Z,2.83
2019-03-10T02:04:01.818Z,2.40
2019-03-10T02:07:26.730Z,2.97
2019-03-10T02:10:50.498Z,2.20
2019-03-10T02:14:14.278Z,2.70
2019-03-10T02:17:38.099Z,2.17
2019-03-10T02:21:01.822Z,1.53
2019-03-10T02:24:25.620Z,1.90
2019-03-10T02:27:49.482Z,2.20
2019-03-10T02:31:13.395Z,1.67
2019-03-10T02:34:37.139Z,1.67
2019-03-10T02:38:01.074Z,2.17
2019-03-10T02:41:25.019Z,1.50
2019-03-10T02:44:48.786Z,1.73
2019-03-10T02:48:13.034Z,2.20
2019-03-10T02:51:36.854Z,2.40
2019-03-10T02:55:00.639Z,1.77
2019-03-10T02:58:24.351Z,2.07
2019-03-10T03:01:48.330Z,2.13
2019-03-10T03:05:12.616Z,1.83
2019-03-10T03:08:36.644Z,1.90
2019-03-10T03:12:00.421Z,2.13
2019-03-10T03:15:24.261Z,1.70
2019-03-10T03:18:48.316Z,1.67
2019-03-10T03:22:12.227Z,1.60
2019-03-10T03:25:36.591Z,2.20
2019-03-10T03:29:00.399Z,1.63
2019-03-10T03:32:24.351Z,2.23
2019-03-10T03:35:55.541Z,1.70
2019-03-10T03:39:28.223Z,2.60
2019-03-10T03:42:53.030Z,1.73
2019-03-10T03:46:16.714Z,1.30
2019-03-10T03:49:40.957Z,2.03
2019-03-10T03:53:05.355Z,1.90
2019-03-10T03:56:29.368Z,1.87
2019-03-10T03:59:53.268Z,1.87
2019-03-10T04:03:17.103Z,2.20
2019-03-10T04:06:40.895Z,1.73
2019-03-10T04:10:06.876Z,3.80
2019-03-10T04:13:30.788Z,1.90
2019-03-10T04:16:54.859Z,1.77
2019-03-10T04:20:18.657Z,2.90
2019-03-10T04:23:42.675Z,2.37
2019-03-10T04:27:06.356Z,2.00
2019-03-10T04:30:30.806Z,1.60
2019-03-10T04:33:54.570Z,1.53
2019-03-10T04:37:18.328Z,1.60
2019-03-10T04:40:42.281Z,2.10
2019-03-10T04:44:06.133Z,2.43
2019-03-10T04:47:30.098Z,2.03
2019-03-10T04:50:53.867Z,2.30
2019-03-10T04:54:20.115Z,2.07
2019-03-10T04:58:00.651Z,1.73
2019-03-10T05:01:24.502Z,1.83
2019-03-10T05:04:48.242Z,1.50
2019-03-10T05:08:12.056Z,2.40
2019-03-10T05:11:35.791Z,1.50
2019-03-10T05:14:59.578Z,2.83
2019-03-10T05:18:23.356Z,2.30
2019-03-10T05:21:47.158Z,2.13
2019-03-10T05:25:13.575Z,2.13
2019-03-10T05:28:42.678Z,1.30
2019-03-10T05:32:06.430Z,1.93
2019-03-10T05:35:30.234Z,1.60
2019-03-10T05:38:54.255Z,1.70
2019-03-10T05:42:18.137Z,1.87
2019-03-10T05:45:41.978Z,1.73
2019-03-10T05:49:05.657Z,1.77
2019-03-10T05:52:29.574Z,1.53
2019-03-10T05:55:53.477Z,1.80
2019-03-10T05:59:17.183Z,2.97
2019-03-10T06:02:40.916Z,1.77
2019-03-10T06:06:04.613Z,1.40
2019-03-10T06:09:28.415Z,2.00
2019-03-10T06:12:52.408Z,2.03
2019-03-10T06:16:16.185Z,2.67
2019-03-10T06:19:39.932Z,1.90
2019-03-10T06:23:03.728Z,2.50
2019-03-10T06:26:27.473Z,3.00
2019-03-10T06:29:52.297Z,2.60
2019-03-10T06:33:16.151Z,2.40
2019-03-10T06:36:39.977Z,2.47
2019-03-10T06:40:06.088Z,2.87
2019-03-10T06:43:30.003Z,2.50
2019-03-10T06:46:53.964Z,2.13
2019-03-10T06:50:17.801Z,2.50
2019-03-10T06:53:42.603Z,3.40
2019-03-10T06:57:06.343Z,2.10
2019-03-10T07:00:30.976Z,3.80
2019-03-10T07:03:54.640Z,4.60
2019-03-10T07:07:18.720Z,3.40
2019-03-10T07:10:42.438Z,2.10
2019-03-10T07:14:06.218Z,1.97
2019-03-10T07:17:30.696Z,2.27
2019-03-10T07:20:57.632Z,2.03
2019-03-10T07:24:20.901Z,1.77
2019-03-10T07:27:46.846Z,1.60
2019-03-10T07:31:15.433Z,1.73
2019-03-10T07:34:43.881Z,2.17
2019-03-10T07:38:09.537Z,1.47
2019-03-10T07:41:37.725Z,2.57
2019-03-10T07:45:05.900Z,2.47
2019-03-10T07:48:34.188Z,1.80
2019-03-10T07:52:19.747Z,1.80
2019-03-10T07:55:41.777Z,1.50
2019-03-10T07:59:13.025Z,2.17
2019-03-10T08:02:38.580Z,2.27
2019-03-10T08:06:04.231Z,1.97
2019-03-10T08:09:29.772Z,2.07
2019-03-10T08:12:55.647Z,1.90
2019-03-10T08:16:28.797Z,1.70
2019-03-10T08:19:57.198Z,1.87
2019-03-10T08:23:28.852Z,1.63
2019-03-10T08:26:59.952Z,1.77
2019-03-10T08:30:29.155Z,1.40
2019-03-10T08:34:05.258Z,1.60
2019-03-10T08:37:31.453Z,1.40
2019-03-10T08:41:02.641Z,1.30
2019-03-10T08:44:46.443Z,1.70
2019-03-10T08:48:26.652Z,1.73
2019-03-10T08:51:54.965Z,1.70
2019-03-10T08:55:23.157Z,1.43
2019-03-10T08:59:03.323Z,1.80
2019-03-10T09:02:28.872Z,1.27
2019-03-10T09:05:54.492Z,1.00
2019-03-10T09:09:20.851Z,1.00
2019-03-10T09:12:52.350Z,1.40
2019-03-10T09:16:21.906Z,1.37
2019-03-10T09:20:03.090Z,1.03
2019-03-10T09:23:41.420Z,1.80
2019-03-10T09:27:06.829Z,1.47
2019-03-10T09:30:47.153Z,1.87
2019-03-10T09:34:18.109Z,2.07
2019-03-10T09:38:00.628Z,2.10
2019-03-10T09:41:34.912Z,2.10
2019-03-10T09:45:17.174Z,2.17
2019-03-10T09:48:57.599Z,2.33
2019-03-10T09:52:39.574Z,1.87
2019-03-10T09:56:17.243Z,3.10
2019-03-10T09:59:43.415Z,1.80
2019-03-10T10:03:25.579Z,2.20
2019-03-10T10:06:54.307Z,4.97
2019-03-10T10:10:22.716Z,2.67
2019-03-10T10:13:48.236Z,2.27
2019-03-10T10:17:16.401Z,2.27
2019-03-10T10:20:58.206Z,1.80
2019-03-10T10:24:29.297Z,2.23
2019-03-10T10:27:57.801Z,2.03
2019-03-10T10:31:26.193Z,3.50
2019-03-10T10:35:00.913Z,2.30
2019-03-10T10:38:42.966Z,3.53
2019-03-10T10:42:14.393Z,3.37
2019-03-10T10:45:40.022Z,2.63
2019-03-10T10:49:05.430Z,2.33
2019-03-10T10:52:47.605Z,2.17
2019-03-10T10:56:31.019Z,2.50
2019-03-10T10:59:56.498Z,2.57
2019-03-10T11:03:24.916Z,3.10
2019-03-10T11:06:50.270Z,3.17
2019-03-10T11:10:22.719Z,1.90
2019-03-10T11:14:00.618Z,2.27
2019-03-10T11:17:27.574Z,3.73
2019-03-10T11:20:53.048Z,2.70
2019-03-10T11:24:25.915Z,2.70
2019-03-10T11:27:51.657Z,2.37
2019-03-10T11:31:17.449Z,2.10
2019-03-10T11:34:42.964Z,2.80
2019-03-10T11:38:14.424Z,2.30
2019-03-10T11:41:42.077Z,2.00
2019-03-10T11:45:10.562Z,2.17
2019-03-10T11:48:42.213Z,2.30
2019-03-10T11:52:08.413Z,2.50
2019-03-10T11:55:42.762Z,2.43
2019-03-10T11:59:12.298Z,2.00
2019-03-10T12:02:56.164Z,2.40
2019-03-10T12:06:21.636Z,2.70
2019-03-10T12:09:45.566Z,2.50
2019-03-10T12:13:10.561Z,3.03
2019-03-10T12:16:34.809Z,2.97
2019-03-10T12:19:59.158Z,3.43
2019-03-10T12:23:24.566Z,3.10
2019-03-10T12:26:48.662Z,2.80
2019-03-10T12:30:14.795Z,3.23
2019-03-10T12:33:38.619Z,2.67
2019-03-10T12:37:02.519Z,2.23
2019-03-10T12:40:26.386Z,3.00
2019-03-10T12:43:50.172Z,2.80
2019-03-10T12:47:13.906Z,2.83
2019-03-10T12:50:38.073Z,3.80
2019-03-10T12:54:02.879Z,3.50
2019-03-10T12:57:26.683Z,3.57
2019-03-10T13:00:50.805Z,3.53
2019-03-10T13:04:14.611Z,3.50
2019-03-10T13:07:38.684Z,4.20
2019-03-10T13:11:02.624Z,4.67
2019-03-10T13:14:26.890Z,5.23
2019-03-10T13:17:51.068Z,5.13
2019-03-10T13:21:14.894Z,5.80
2019-03-10T13:24:38.816Z,5.47
2019-03-10T13:28:02.954Z,5.27
2019-03-10T13:31:26.864Z,6.07
2019-03-10T13:34:50.534Z,5.57
2019-03-10T13:38:14.672Z,5.33
2019-03-10T13:41:38.544Z,4.80
2019-03-10T13:45:02.633Z,5.43
2019-03-10T13:48:26.400Z,5.90
2019-03-10T13:51:50.160Z,5.83
2019-03-10T13:55:14.094Z,4.90
2019-03-10T13:58:38.017Z,5.20
2019-03-10T14:02:01.856Z,4.60
2019-03-10T14:05:28.143Z,4.40
2019-03-10T14:08:52.248Z,4.97
2019-03-10T14:12:16.195Z,6.33
2019-03-10T14:15:40.083Z,5.50
2019-03-10T14:19:03.998Z,6.10
2019-03-10T14:22:27.785Z,5.30
2019-03-10T14:25:51.736Z,7.20
2019-03-10T14:29:15.804Z,6.23
2019-03-10T14:32:40.593Z,6.87
2019-03-10T14:36:04.515Z,8.33
2019-03-10T14:39:28.297Z,8.33
2019-03-10T14:42:53.052Z,9.43
2019-03-10T14:46:17.281Z,8.87
2019-03-10T14:49:41.649Z,9.47
2019-03-10T14:53:05.861Z,9.00
2019-03-10T14:56:30.849Z,9.00
2019-03-10T14:59:55.271Z,9.70
2019-03-10T15:03:21.205Z,7.80
2019-03-10T15:06:45.468Z,8.10
2019-03-10T15:10:14.492Z,7.67
2019-03-10T15:13:38.699Z,8.17
2019-03-10T15:17:02.762Z,8.03
2019-03-10T15:20:26.593Z,9.90
2019-03-10T15:23:50.385Z,9.40
2019-03-10T15:27:23.038Z,8.60
2019-03-10T15:30:39.843Z,9.67
2019-03-10T15:34:03.665Z,10.17
2019-03-10T15:37:27.633Z,10.30
2019-03-10T15:40:51.331Z,10.60
2019-03-10T15:44:15.547Z,12.87
2019-03-10T15:47:39.441Z,16.00
2019-03-10T15:51:03.455Z,15.83
2019-03-10T15:54:27.575Z,17.03
2019-03-10T15:57:51.540Z,16.90
2019-03-10T16:01:15.533Z,18.67
2019-03-10T16:04:40.112Z,19.30
2019-03-10T16:08:04.169Z,20.70
2019-03-10T16:11:28.471Z,20.37
2019-03-10T16:14:52.272Z,21.00
2019-03-10T16:18:16.286Z,16.90
2019-03-10T16:21:40.251Z,15.97
2019-03-10T16:25:06.644Z,14.53
2019-03-10T16:28:30.578Z,16.17
2019-03-10T16:31:54.595Z,18.70
2019-03-10T16:35:21.975Z,17.83
2019-03-10T16:38:44.984Z,21.97
2019-03-10T16:42:09.323Z,19.43
2019-03-10T16:45:33.055Z,22.10
2019-03-10T16:48:57.420Z,20.23
2019-03-10T16:52:21.248Z,21.80
2019-03-10T16:55:45.106Z,27.77
2019-03-10T16:59:08.849Z,29.33
2019-03-10T17:02:32.715Z,34.03
2019-03-10T17:05:57.121Z,25.83
2019-03-10T17:09:21.091Z,31.73
2019-03-10T17:12:45.134Z,31.53
2019-03-10T17:16:09.000Z,25.33
2019-03-10T17:19:32.744Z,33.37
2019-03-10T17:22:56.553Z,25.90
2019-03-10T17:26:20.356Z,23.47
2019-03-10T17:29:44.932Z,21.80
2019-03-10T17:33:08.760Z,22.77
2019-03-10T17:36:32.556Z,19.50
2019-03-10T17:39:56.504Z,19.17
2019-03-10T17:43:20.399Z,17.23
2019-03-10T17:46:44.589Z,19.20
2019-03-10T17:50:09.931Z,20.63
2019-03-10T17:53:33.725Z,18.23
2019-03-10T17:56:58.126Z,22.03
2019-03-10T18:00:23.919Z,23.30
2019-03-10T18:03:48.281Z,23.53
2019-03-10T18:07:12.107Z,23.87
2019-03-10T18:10:35.994Z,27.93
2019-03-10T18:14:00.749Z,22.00
2019-03-10T18:17:24.724Z,24.97
2019-03-10T18:20:48.708Z,36.83
2019-03-10T18:24:15.342Z,32.57
2019-03-10T18:27:39.204Z,30.87
2019-03-10T18:31:03.394Z,33.67
2019-03-10T18:34:27.542Z,28.70
2019-03-10T18:37:54.783Z,25.30
2019-03-10T18:41:18.656Z,27.70
2019-03-10T18:44:42.629Z,26.70
2019-03-10T18:48:06.596Z,22.17
2019-03-10T18:51:30.494Z,23.30
2019-03-10T18:54:54.235Z,25.03
2019-03-10T18:58:18.032Z,23.87
2019-03-10T19:01:42.065Z,25.50
2019-03-10T19:05:07.091Z,22.47
2019-03-10T19:08:30.890Z,24.63
2019-03-10T19:11:54.683Z,26.10
2019-03-10T19:15:22.444Z,29.37
2019-03-10T19:18:46.747Z,29.10
2019-03-10T19:22:10.650Z,29.07
2019-03-10T19:25:34.538Z,28.40
2019-03-10T19:28:59.411Z,27.23
2019-03-10T19:32:23.437Z,27.70
2019-03-10T19:35:51.267Z,33.60
2019-03-10T19:39:15.278Z,33.67
2019-03-10T19:42:39.062Z,31.90
2019-03-10T19:46:03.043Z,28.53
2019-03-10T19:49:27.096Z,28.90
2019-03-10T19:52:51.136Z,28.00
2019-03-10T19:56:15.356Z,28.40
2019-03-10T19:59:39.261Z,26.00
2019-03-10T20:03:03.846Z,26.00
2019-03-10T20:06:27.759Z,24.60
2019-03-10T20:09:52.072Z,24.47
2019-03-10T20:13:15.891Z,24.30
2019-03-10T20:16:39.731Z,24.50
2019-03-10T20:20:04.463Z,24.37
2019-03-10T20:23:28.224Z,26.50
2019-03-10T20:26:52.856Z,27.17
2019-03-10T20:30:20.835Z,25.70
2019-03-10T20:33:44.669Z,25.57
2019-03-10T20:37:09.398Z,26.70
2019-03-10T20:40:33.180Z,27.23
2019-03-10T20:43:57.102Z,27.20
2019-03-10T20:47:20.981Z,26.60
2019-03-10T20:50:45.486Z,27.57
2019-03-10T20:54:09.457Z,27.20
2019-03-10T20:57:33.334Z,26.37
2019-03-10T21:00:57.276Z,27.10
2019-03-10T21:04:22.852Z,25.53
2019-03-10T21:07:47.301Z,22.93
2019-03-10T21:11:12.520Z,20.73
2019-03-10T21:14:36.603Z,20.57
2019-03-10T21:18:00.597Z,20.47
2019-03-10T21:21:25.190Z,18.00
2019-03-10T21:24:52.779Z,15.33
2019-03-10T21:28:16.728Z,14.63
2019-03-10T21:31:41.763Z,12.57
2019-03-10T21:35:16.870Z,8.83
2019-03-10T21:38:33.428Z,9.13
2019-03-10T21:41:57.274Z,7.93
2019-03-10T21:45:22.288Z,4.77
2019-03-10T21:48:46.878Z,4.53
2019-03-10T21:52:10.802Z,3.60
2019-03-10T21:55:34.684Z,3.93
2019-03-10T21:58:58.456Z,4.13
2019-03-10T22:02:22.326Z,4.30
2019-03-10T22:05:46.310Z,3.27
2019-03-10T22:09:10.135Z,3.57
2019-03-10T22:12:33.860Z,3.40
2019-03-10T22:15:57.741Z,3.30
2019-03-10T22:19:22.981Z,3.37
2019-03-10T22:22:49.223Z,2.90
2019-03-10T22:26:12.463Z,3.30
2019-03-10T22:29:36.294Z,3.27
2019-03-10T22:33:00.083Z,3.37
2019-03-10T22:36:23.866Z,3.20
2019-03-10T22:39:47.901Z,3.37
2019-03-10T22:43:11.659Z,3.50
2019-03-10T22:46:35.433Z,3.27
2019-03-10T22:49:59.204Z,2.80
2019-03-10T22:53:23.008Z,2.50
2019-03-10T22:56:46.774Z,2.57
2019-03-10T23:00:47.265Z,2.20
2019-03-10T23:04:11.106Z,1.60
2019-03-10T23:07:34.666Z,2.30
2019-03-10T23:10:58.458Z,2.57
2019-03-10T23:14:22.293Z,1.80
2019-03-10T23:17:46.121Z,2.30
2019-03-10T23:21:10.051Z,2.27
2019-03-10T23:24:34.039Z,2.37
2019-03-10T23:27:58.005Z,1.70
2019-03-10T23:31:22.216Z,2.57
2019-03-10T23:34:46.021Z,2.40
2019-03-10T23:38:09.864Z,2.90
2019-03-10T23:41:33.733Z,2.77
2019-03-10T23:44:57.539Z,3.07
2019-03-10T23:48:21.333Z,3.40
2019-03-10T23:51:45.791Z,3.20
2019-03-10T23:55:11.735Z,2.60
2019-03-10T23:58:35.768Z,3.23
